createdAt,value
2018-06-22T00:01:17.023Z,98681.01
2018-06-22T00:03:45.669Z,98675.17
2018-06-22T00:06:14.415Z,98689.23
2018-06-22T00:08:43.011Z,98688.26
2018-06-22T00:11:11.996Z,98694.30
2018-06-22T00:13:40.649Z,98691.59
2018-06-22T00:16:09.214Z,98690.57
2018-06-22T00:18:37.759Z,98688.13
2018-06-22T00:21:06.446Z,98690.23
2018-06-22T00:23:34.959Z,98691.82
2018-06-22T00:26:03.605Z,98694.57
2018-06-22T00:28:32.760Z,98697.86
2018-06-22T00:31:01.986Z,98695.19
2018-06-22T00:33:30.967Z,98706.60
2018-06-22T00:35:59.506Z,98703.63
2018-06-22T00:38:29.005Z,98705.02
2018-06-22T00:40:57.719Z,98713.11
2018-06-22T00:43:26.274Z,98712.94
2018-06-22T00:45:56.065Z,98711.11
2018-06-22T00:48:24.906Z,98714.13
2018-06-22T00:50:53.456Z,98712.32
2018-06-22T00:54:25.352Z,98717.89
2018-06-22T00:56:54.436Z,98717.77
2018-06-22T00:59:22.947Z,98719.48
2018-06-22T01:01:51.511Z,98719.27
2018-06-22T01:04:20.184Z,98722.28
2018-06-22T01:06:48.771Z,98723.12
2018-06-22T01:09:17.389Z,98728.67
2018-06-22T01:11:46.040Z,98723.82
2018-06-22T01:14:14.484Z,98722.30
2018-06-22T01:16:43.085Z,98728.04
2018-06-22T01:19:11.717Z,98727.01
2018-06-22T01:21:40.516Z,98734.66
2018-06-22T01:24:09.025Z,98733.35
2018-06-22T01:26:38.532Z,98739.41
2018-06-22T01:29:12.291Z,98739.24
2018-06-22T01:31:41.136Z,98738.11
2018-06-22T01:34:09.859Z,98743.77
2018-06-22T01:36:39.983Z,98737.77
2018-06-22T01:39:09.579Z,98740.08
2018-06-22T01:41:39.179Z,98748.86
2018-06-22T01:44:07.809Z,98746.02
2018-06-22T01:46:37.061Z,98750.91
2018-06-22T01:49:06.380Z,98753.09
2018-06-22T01:51:35.010Z,98746.36
2018-06-22T01:54:03.754Z,98747.79
2018-06-22T01:56:32.795Z,98747.92
2018-06-22T01:59:01.336Z,98751.48
2018-06-22T02:01:29.928Z,98743.47
2018-06-22T02:03:58.667Z,98749.16
2018-06-22T02:06:27.245Z,98750.28
2018-06-22T02:08:55.887Z,98750.00
2018-06-22T02:11:24.960Z,98753.81
2018-06-22T02:13:54.042Z,98754.94
2018-06-22T02:16:22.767Z,98750.90
2018-06-22T02:18:51.330Z,98755.77
2018-06-22T02:21:21.330Z,98756.02
2018-06-22T02:23:49.836Z,98756.61
2018-06-22T02:26:18.560Z,98754.20
2018-06-22T02:28:47.277Z,98759.08
2018-06-22T02:31:16.083Z,98763.67
2018-06-22T02:33:44.758Z,98768.30
2018-06-22T02:36:13.445Z,98764.78
2018-06-22T02:38:42.151Z,98756.97
2018-06-22T02:41:10.694Z,98761.84
2018-06-22T02:43:39.400Z,98767.78
2018-06-22T02:46:07.924Z,98768.11
2018-06-22T02:48:36.492Z,98764.31
2018-06-22T02:51:05.036Z,98779.73
2018-06-22T02:53:33.622Z,98782.43
2018-06-22T02:56:02.402Z,98777.28
2018-06-22T02:58:31.196Z,98777.57
2018-06-22T03:00:59.983Z,98774.62
2018-06-22T03:03:29.400Z,98777.07
2018-06-22T03:05:57.980Z,98777.88
2018-06-22T03:08:26.620Z,98779.80
2018-06-22T03:10:55.391Z,98781.14
2018-06-22T03:13:24.070Z,98775.74
2018-06-22T03:15:52.718Z,98786.79
2018-06-22T03:18:21.905Z,98786.53
2018-06-22T03:20:50.551Z,98788.72
2018-06-22T03:23:19.178Z,98793.01
2018-06-22T03:25:48.256Z,98793.30
2018-06-22T03:28:17.267Z,98794.91
2018-06-22T03:30:45.871Z,98793.03
2018-06-22T03:33:14.756Z,98790.61
2018-06-22T03:35:43.376Z,98793.83
2018-06-22T03:38:11.912Z,98790.58
2018-06-22T03:40:40.718Z,98790.58
2018-06-22T03:43:09.542Z,98792.46
2018-06-22T03:45:38.993Z,98800.57
2018-06-22T03:48:07.812Z,98795.72
2018-06-22T03:50:36.436Z,98796.25
2018-06-22T03:53:05.032Z,98798.95
2018-06-22T03:55:33.660Z,98798.70
2018-06-22T03:58:02.228Z,98800.84
2018-06-22T04:00:31.166Z,98803.27
2018-06-22T04:03:01.356Z,98802.19
2018-06-22T04:05:32.007Z,98808.91
2018-06-22T04:08:00.790Z,98800.83
2018-06-22T04:10:30.031Z,98806.19
2018-06-22T04:12:58.598Z,98812.66
2018-06-22T04:15:28.021Z,98808.86
2018-06-22T04:17:56.616Z,98808.53
2018-06-22T04:20:26.391Z,98812.00
2018-06-22T04:22:55.246Z,98815.20
2018-06-22T04:25:24.906Z,98810.85
2018-06-22T04:27:53.830Z,98815.96
2018-06-22T04:30:22.661Z,98817.00
2018-06-22T04:32:51.716Z,98818.03
2018-06-22T04:35:20.668Z,98819.05
2018-06-22T04:37:50.193Z,98814.66
2018-06-22T04:40:19.031Z,98811.87
2018-06-22T04:42:47.638Z,98806.37
2018-06-22T04:45:16.725Z,98812.49
2018-06-22T04:47:45.511Z,98810.77
2018-06-22T04:50:14.776Z,98801.36
2018-06-22T04:52:43.548Z,98808.31
2018-06-22T04:55:12.162Z,98813.23
2018-06-22T04:57:41.141Z,98808.86
2018-06-22T05:00:09.933Z,98812.87
2018-06-22T05:02:38.723Z,98813.59
2018-06-22T05:05:07.297Z,98816.78
2018-06-22T05:07:36.198Z,98812.41
2018-06-22T05:10:05.154Z,98816.58
2018-06-22T05:12:33.754Z,98818.41
2018-06-22T05:15:02.442Z,98814.56
2018-06-22T05:17:31.454Z,98814.13
2018-06-22T05:20:00.092Z,98813.48
2018-06-22T05:22:28.962Z,98815.48
2018-06-22T05:24:57.758Z,98814.16
2018-06-22T05:27:26.493Z,98813.85
2018-06-22T05:29:55.082Z,98806.65
2018-06-22T05:32:23.715Z,98811.09
2018-06-22T05:34:52.338Z,98811.75
2018-06-22T05:37:20.933Z,98814.69
2018-06-22T05:39:49.676Z,98806.61
2018-06-22T05:42:18.232Z,98804.47
2018-06-22T05:44:46.795Z,98805.63
2018-06-22T05:47:16.091Z,98808.75
2018-06-22T05:49:45.121Z,98804.49
2018-06-22T05:52:14.526Z,98795.97
2018-06-22T05:54:43.146Z,98803.36
2018-06-22T05:57:12.149Z,98804.98
2018-06-22T05:59:40.901Z,98809.79
2018-06-22T06:02:09.693Z,98817.25
2018-06-22T06:04:39.166Z,98818.51
2018-06-22T06:07:08.137Z,98812.28
2018-06-22T06:09:36.966Z,98813.65
2018-06-22T06:12:05.947Z,98808.36
2018-06-22T06:14:35.716Z,98816.94
2018-06-22T06:17:05.798Z,98809.91
2018-06-22T06:19:35.123Z,98814.98
2018-06-22T06:22:03.883Z,98814.97
2018-06-22T06:24:32.972Z,98804.74
2018-06-22T06:27:01.628Z,98818.45
2018-06-22T06:29:30.431Z,98799.73
2018-06-22T06:31:59.072Z,98811.33
2018-06-22T06:34:28.035Z,98816.92
2018-06-22T06:36:56.796Z,98812.19
2018-06-22T06:39:27.033Z,98821.66
2018-06-22T06:41:56.156Z,98818.97
2018-06-22T06:44:25.172Z,98826.13
2018-06-22T06:46:54.834Z,98819.27
2018-06-22T06:49:23.545Z,98823.97
2018-06-22T06:51:52.289Z,98822.73
2018-06-22T06:54:20.844Z,98826.66
2018-06-22T06:56:50.058Z,98824.17
2018-06-22T06:59:18.992Z,98824.39
2018-06-22T07:01:47.595Z,98823.33
2018-06-22T07:04:17.015Z,98825.25
2018-06-22T07:06:45.846Z,98825.98
2018-06-22T07:09:14.669Z,98833.88
2018-06-22T07:11:43.293Z,98827.78
2018-06-22T07:14:12.053Z,98830.14
2018-06-22T07:16:40.662Z,98834.39
2018-06-22T07:19:09.669Z,98838.45
2018-06-22T07:21:38.363Z,98839.06
2018-06-22T07:24:07.294Z,98838.84
2018-06-22T07:26:35.860Z,98832.80
2018-06-22T07:29:04.613Z,98825.27
2018-06-22T07:31:33.279Z,98827.55
2018-06-22T07:34:02.160Z,98823.45
2018-06-22T07:36:31.064Z,98825.34
2018-06-22T07:39:00.284Z,98824.48
2018-06-22T07:41:29.838Z,98832.66
2018-06-22T07:43:58.765Z,98837.06
2018-06-22T07:46:28.488Z,98841.89
2018-06-22T07:48:57.475Z,98837.00
2018-06-22T07:51:26.257Z,98828.80
2018-06-22T07:53:54.890Z,98840.08
2018-06-22T07:56:24.248Z,98841.28
2018-06-22T07:58:52.835Z,98852.97
2018-06-22T08:01:22.342Z,98856.97
2018-06-22T08:03:51.003Z,98869.27
2018-06-22T08:06:19.800Z,98872.05
2018-06-22T08:08:48.698Z,98864.11
2018-06-22T08:11:17.645Z,98862.30
2018-06-22T08:13:46.461Z,98862.77
2018-06-22T08:16:15.459Z,98866.12
2018-06-22T08:18:44.157Z,98859.35
2018-06-22T08:21:12.879Z,98853.86
2018-06-22T08:23:41.623Z,98865.77
2018-06-22T08:26:10.925Z,98869.06
2018-06-22T08:28:40.256Z,98867.53
2018-06-22T08:31:09.057Z,98856.64
2018-06-22T08:33:37.632Z,98859.30
2018-06-22T08:36:06.758Z,98865.03
2018-06-22T08:38:35.504Z,98846.85
2018-06-22T08:41:04.310Z,98832.66
2018-06-22T08:43:34.804Z,98840.99
2018-06-22T08:46:04.699Z,98846.00
2018-06-22T08:48:33.423Z,98836.09
2018-06-22T08:51:02.295Z,98836.19
2018-06-22T08:53:31.330Z,98842.28
2018-06-22T08:56:00.720Z,98835.92
2018-06-22T08:58:29.918Z,98844.94
2018-06-22T09:00:59.155Z,98846.44
2018-06-22T09:03:28.489Z,98837.96
2018-06-22T09:05:57.450Z,98848.75
2018-06-22T09:08:26.060Z,98847.41
2018-06-22T09:10:54.898Z,98855.99
2018-06-22T09:13:23.714Z,98845.08
2018-06-22T09:15:52.753Z,98844.53
2018-06-22T09:18:21.631Z,98845.26
2018-06-22T09:20:50.924Z,98851.51
2018-06-22T09:23:19.980Z,98854.20
2018-06-22T09:25:48.734Z,98837.72
2018-06-22T09:28:17.592Z,98829.74
2018-06-22T09:30:47.163Z,98833.97
2018-06-22T09:33:15.934Z,98843.76
2018-06-22T09:35:44.588Z,98845.50
2018-06-22T09:38:13.543Z,98842.94
2018-06-22T09:40:42.219Z,98846.10
2018-06-22T09:43:10.815Z,98847.25
2018-06-22T09:45:40.215Z,98851.92
2018-06-22T09:48:08.899Z,98846.98
2018-06-22T09:50:37.733Z,98845.72
2018-06-22T09:53:06.475Z,98844.45
2018-06-22T09:55:35.222Z,98845.53
2018-06-22T09:58:04.039Z,98852.20
2018-06-22T10:00:32.715Z,98846.37
2018-06-22T10:03:01.503Z,98852.23
2018-06-22T10:05:30.369Z,98843.50
2018-06-22T10:07:58.995Z,98835.66
2018-06-22T10:10:27.968Z,98834.63
2018-06-22T10:12:56.822Z,98822.66
2018-06-22T10:15:25.443Z,98818.69
2018-06-22T10:17:54.564Z,98816.52
2018-06-22T10:20:23.403Z,98818.56
2018-06-22T10:22:52.261Z,98818.52
2018-06-22T10:25:20.938Z,98818.38
2018-06-22T10:27:49.625Z,98811.25
2018-06-22T10:30:18.493Z,98814.70
2018-06-22T10:32:47.075Z,98820.05
2018-06-22T10:35:15.797Z,98814.79
2018-06-22T10:37:44.414Z,98819.00
2018-06-22T10:40:13.560Z,98824.25
2018-06-22T10:42:42.483Z,98829.56
2018-06-22T10:45:11.273Z,98826.61
2018-06-22T10:47:39.959Z,98824.36
2018-06-22T10:50:08.685Z,98834.20
2018-06-22T10:52:37.448Z,98835.28
2018-06-22T10:55:06.289Z,98834.30
2018-06-22T10:57:34.945Z,98837.17
2018-06-22T11:00:03.895Z,98833.31
2018-06-22T11:02:32.496Z,98829.00
2018-06-22T11:05:01.842Z,98827.35
2018-06-22T11:07:30.539Z,98825.38
2018-06-22T11:09:59.424Z,98831.59
2018-06-22T11:12:28.379Z,98827.47
2018-06-22T11:14:57.508Z,98831.14
2018-06-22T11:17:26.288Z,98828.55
2018-06-22T11:19:55.144Z,98835.83
2018-06-22T11:22:23.851Z,98831.94
2018-06-22T11:24:52.681Z,98827.49
2018-06-22T11:27:21.454Z,98833.38
2018-06-22T11:29:50.034Z,98835.91
2018-06-22T11:32:18.893Z,98830.11
2018-06-22T11:34:48.610Z,98825.58
2018-06-22T11:37:17.285Z,98834.30
2018-06-22T11:39:45.978Z,98842.42
2018-06-22T11:42:14.999Z,98830.97
2018-06-22T11:44:44.524Z,98838.36
2018-06-22T11:47:13.484Z,98834.84
2018-06-22T11:49:42.571Z,98831.45
2018-06-22T11:52:11.419Z,98826.33
2018-06-22T11:54:40.300Z,98824.77
2018-06-22T11:57:08.996Z,98818.89
2018-06-22T11:59:37.719Z,98824.32
2018-06-22T12:02:06.702Z,98823.79
2018-06-22T12:04:35.571Z,98833.36
2018-06-22T12:07:04.426Z,98823.55
2018-06-22T12:09:33.271Z,98825.61
2018-06-22T12:12:02.016Z,98832.73
2018-06-22T12:14:32.175Z,98826.99
2018-06-22T12:17:00.912Z,98824.77
2018-06-22T12:19:30.392Z,98826.33
2018-06-22T12:21:59.141Z,98820.70
2018-06-22T12:24:27.945Z,98829.37
2018-06-22T12:26:56.845Z,98825.00
2018-06-22T12:29:25.616Z,98820.37
2018-06-22T12:31:55.164Z,98819.45
2018-06-22T12:34:23.834Z,98824.49
2018-06-22T12:36:52.495Z,98819.56
2018-06-22T12:39:21.326Z,98818.90
2018-06-22T12:41:49.925Z,98820.40
2018-06-22T12:44:19.033Z,98823.17
2018-06-22T12:46:48.005Z,98823.98
2018-06-22T12:49:17.125Z,98826.14
2018-06-22T12:51:46.342Z,98823.33
2018-06-22T12:54:15.077Z,98822.78
2018-06-22T12:56:44.676Z,98823.47
2018-06-22T12:59:13.238Z,98823.52
2018-06-22T13:01:42.477Z,98827.17
2018-06-22T13:04:11.192Z,98836.92
2018-06-22T13:06:40.246Z,98826.80
2018-06-22T13:09:11.673Z,98822.12
2018-06-22T13:11:40.674Z,98823.05
2018-06-22T13:14:10.142Z,98835.49
2018-06-22T13:16:38.892Z,98827.84
2018-06-22T13:19:08.012Z,98831.58
2018-06-22T13:21:49.509Z,98827.89
2018-06-22T13:24:18.626Z,98827.61
2018-06-22T13:26:47.292Z,98825.36
2018-06-22T13:29:16.514Z,98816.09
2018-06-22T13:31:46.564Z,98813.89
2018-06-22T13:34:16.501Z,98814.20
2018-06-22T13:36:46.098Z,98814.45
2018-06-22T13:39:18.745Z,98808.80
2018-06-22T13:41:48.142Z,98815.55
2018-06-22T13:44:17.049Z,98814.47
2018-06-22T13:46:46.021Z,98821.78
2018-06-22T13:49:14.900Z,98818.98
2018-06-22T13:51:43.601Z,98825.88
2018-06-22T13:54:12.620Z,98827.69
2018-06-22T13:56:41.400Z,98823.19
2018-06-22T13:59:10.170Z,98822.60
2018-06-22T14:01:38.862Z,98825.80
2018-06-22T14:04:12.707Z,98828.99
2018-06-22T14:06:55.241Z,98821.09
2018-06-22T14:09:23.952Z,98822.03
2018-06-22T14:11:52.869Z,98823.09
2018-06-22T14:14:21.620Z,98823.03
2018-06-22T14:16:50.291Z,98831.81
2018-06-22T14:19:19.074Z,98831.45
2018-06-22T14:21:47.885Z,98835.81
2018-06-22T14:24:16.601Z,98837.67
2018-06-22T14:26:45.267Z,98843.27
2018-06-22T14:29:14.060Z,98848.62
2018-06-22T14:31:42.893Z,98845.10
2018-06-22T14:34:11.707Z,98844.28
2018-06-22T14:36:40.543Z,98853.00
2018-06-22T14:39:09.796Z,98853.01
2018-06-22T14:41:38.579Z,98842.19
2018-06-22T14:44:07.313Z,98843.34
2018-06-22T14:46:36.275Z,98848.23
2018-06-22T14:49:05.396Z,98843.37
2018-06-22T14:51:34.051Z,98848.97
2018-06-22T14:55:05.889Z,98843.86
2018-06-22T14:57:39.865Z,98844.64
2018-06-22T15:00:13.885Z,98843.94
2018-06-22T15:02:48.066Z,98837.98
2018-06-22T15:05:22.142Z,98841.03
2018-06-22T15:07:54.985Z,98843.84
2018-06-22T15:10:24.106Z,98834.90
2018-06-22T15:12:53.111Z,98838.55
2018-06-22T15:15:21.984Z,98837.59
2018-06-22T15:17:51.640Z,98836.61
2018-06-22T15:20:20.902Z,98838.91
2018-06-22T15:22:50.053Z,98837.88
2018-06-22T15:25:19.823Z,98841.05
2018-06-22T15:27:48.596Z,98838.19
2018-06-22T15:30:17.620Z,98840.13
2018-06-22T15:32:46.357Z,98838.98
2018-06-22T15:35:20.184Z,98840.34
2018-06-22T15:37:54.825Z,98833.59
2018-06-22T15:41:29.417Z,98834.16
2018-06-22T15:44:03.458Z,98826.50
2018-06-22T15:46:37.187Z,98820.45
2018-06-22T15:49:11.181Z,98820.34
2018-06-22T15:51:45.161Z,98828.03
2018-06-22T15:54:19.313Z,98828.23
2018-06-22T15:56:48.076Z,98826.38
2018-06-22T15:59:16.766Z,98834.97
2018-06-22T16:01:45.661Z,98831.27
2018-06-22T16:04:14.431Z,98834.11
2018-06-22T16:06:43.421Z,98827.95
2018-06-22T16:09:12.452Z,98829.08
2018-06-22T16:11:43.206Z,98829.05
2018-06-22T16:14:17.164Z,98829.48
2018-06-22T16:16:50.957Z,98835.47
2018-06-22T16:19:25.011Z,98836.20
2018-06-22T16:21:58.853Z,98828.34
2018-06-22T16:24:33.112Z,98832.48
2018-06-22T16:27:08.675Z,98832.46
2018-06-22T16:29:37.429Z,98833.34
2018-06-22T16:32:06.263Z,98833.45
2018-06-22T16:34:35.090Z,98835.48
2018-06-22T16:37:04.013Z,98844.53
2018-06-22T16:39:32.641Z,98853.22
2018-06-22T16:42:01.326Z,98851.47
2018-06-22T16:44:30.642Z,98841.61
2018-06-22T16:46:59.352Z,98842.08
2018-06-22T16:49:29.187Z,98844.63
2018-06-22T16:51:57.958Z,98840.23
2018-06-22T16:54:26.903Z,98842.31
2018-06-22T16:56:55.682Z,98843.31
2018-06-22T16:59:24.366Z,98842.40
2018-06-22T17:01:53.366Z,98841.61
2018-06-22T17:04:22.793Z,98838.78
2018-06-22T17:06:56.755Z,98843.06
2018-06-22T17:09:30.972Z,98840.98
2018-06-22T17:12:04.949Z,98842.55
2018-06-22T17:14:38.719Z,98840.93
2018-06-22T17:17:12.903Z,98842.67
2018-06-22T17:19:41.703Z,98841.23
2018-06-22T17:22:10.377Z,98841.98
2018-06-22T17:24:40.028Z,98848.97
2018-06-22T17:27:09.072Z,98845.68
2018-06-22T17:29:37.933Z,98841.05
2018-06-22T17:32:06.779Z,98847.73
2018-06-22T17:34:35.507Z,98852.09
2018-06-22T17:37:04.319Z,98850.72
2018-06-22T17:39:33.065Z,98857.34
2018-06-22T17:42:01.747Z,98852.70
2018-06-22T17:44:30.517Z,98851.06
2018-06-22T17:46:59.218Z,98858.48
2018-06-22T17:49:27.832Z,98852.63
2018-06-22T17:51:56.664Z,98856.40
2018-06-22T17:54:25.486Z,98858.99
2018-06-22T17:56:54.307Z,98857.41
2018-06-22T17:59:28.454Z,98863.59
2018-06-22T18:02:02.308Z,98859.44
2018-06-22T18:04:44.268Z,98862.00
2018-06-22T18:07:18.683Z,98851.70
2018-06-22T18:09:52.612Z,98856.69
2018-06-22T18:12:26.793Z,98861.61
2018-06-22T18:14:55.526Z,98853.23
2018-06-22T18:17:24.891Z,98860.55
2018-06-22T18:19:53.797Z,98857.81
2018-06-22T18:22:22.437Z,98867.38
2018-06-22T18:24:51.499Z,98861.78
2018-06-22T18:27:20.655Z,98866.05
2018-06-22T18:29:49.553Z,98861.95
2018-06-22T18:32:19.227Z,98860.74
2018-06-22T18:34:48.252Z,98862.70
2018-06-22T18:37:17.198Z,98852.63
2018-06-22T18:39:46.361Z,98855.69
2018-06-22T18:42:15.321Z,98864.55
2018-06-22T18:44:44.276Z,98863.27
2018-06-22T18:47:13.337Z,98866.08
2018-06-22T18:49:42.336Z,98867.03
2018-06-22T18:52:16.469Z,98872.42
2018-06-22T18:56:14.513Z,98873.13
2018-06-22T18:58:48.418Z,98872.65
2018-06-22T19:01:22.443Z,98874.34
2018-06-22T19:03:51.744Z,98878.59
2018-06-22T19:06:20.573Z,98880.29
2018-06-22T19:08:49.527Z,98883.31
2018-06-22T19:11:18.969Z,98881.63
2018-06-22T19:13:47.620Z,98879.00
2018-06-22T19:16:16.467Z,98878.49
2018-06-22T19:18:45.430Z,98881.63
2018-06-22T19:21:14.199Z,98887.13
2018-06-22T19:23:43.387Z,98876.82
2018-06-22T19:26:12.125Z,98884.80
2018-06-22T19:28:40.927Z,98894.30
2018-06-22T19:31:09.584Z,98894.50
2018-06-22T19:33:38.490Z,98902.11
2018-06-22T19:36:07.562Z,98892.23
2018-06-22T19:38:36.604Z,98904.30
2018-06-22T19:41:06.049Z,98905.68
2018-06-22T19:43:39.918Z,98908.95
2018-06-22T19:46:13.856Z,98917.07
2018-06-22T19:48:48.338Z,98914.03
2018-06-22T19:51:22.326Z,98914.45
2018-06-22T19:54:00.891Z,98918.66
2018-06-22T19:56:30.622Z,98924.28
2018-06-22T19:58:59.433Z,98919.90
2018-06-22T20:01:28.449Z,98921.84
2018-06-22T20:03:57.737Z,98923.56
2018-06-22T20:06:26.968Z,98927.06
2018-06-22T20:08:56.258Z,98931.33
2018-06-22T20:11:24.997Z,98929.86
2018-06-22T20:13:53.987Z,98938.50
2018-06-22T20:16:22.878Z,98935.82
2018-06-22T20:18:52.244Z,98945.28
2018-06-22T20:21:21.444Z,98947.19
2018-06-22T20:23:50.554Z,98945.39
2018-06-22T20:26:19.318Z,98944.81
2018-06-22T20:28:48.298Z,98943.76
2018-06-22T20:31:22.260Z,98952.48
2018-06-22T20:33:51.070Z,98952.25
2018-06-22T20:36:26.778Z,98951.02
2018-06-22T20:39:00.913Z,98960.89
2018-06-22T20:41:34.731Z,98960.65
2018-06-22T20:44:09.171Z,98952.35
2018-06-22T20:46:43.284Z,98959.38
2018-06-22T20:49:17.321Z,98959.83
2018-06-22T20:51:46.169Z,98958.53
2018-06-22T20:54:15.690Z,98964.77
2018-06-22T20:56:45.079Z,98968.47
2018-06-22T20:59:14.082Z,98958.97
2018-06-22T21:01:43.290Z,98968.22
2018-06-22T21:04:15.936Z,98971.28
2018-06-22T21:06:44.600Z,98977.64
2018-06-22T21:09:13.510Z,98976.17
2018-06-22T21:11:42.938Z,98981.59
2018-06-22T21:14:11.986Z,98980.22
2018-06-22T21:16:41.457Z,98981.11
2018-06-22T21:19:10.486Z,98978.72
2018-06-22T21:21:44.949Z,98976.97
2018-06-22T21:24:13.952Z,98980.02
2018-06-22T21:26:42.611Z,98981.63
2018-06-22T21:29:16.501Z,98983.62
2018-06-22T21:31:50.373Z,98988.23
2018-06-22T21:34:24.555Z,98988.09
2018-06-22T21:36:59.187Z,98974.08
2018-06-22T21:39:28.150Z,98982.56
2018-06-22T21:41:56.830Z,98981.05
2018-06-22T21:44:25.758Z,98987.08
2018-06-22T21:46:54.509Z,98987.20
2018-06-22T21:49:23.184Z,98982.68
2018-06-22T21:51:51.797Z,98985.09
2018-06-22T21:54:20.737Z,98993.27
2018-06-22T21:56:49.374Z,98988.72
2018-06-22T21:59:18.005Z,98989.94
2018-06-22T22:01:46.705Z,98988.67
2018-06-22T22:04:16.204Z,98987.63
2018-06-22T22:06:44.754Z,98989.80
2018-06-22T22:09:13.663Z,98991.14
2018-06-22T22:11:47.582Z,98989.45
2018-06-22T22:14:16.456Z,98989.18
2018-06-22T22:16:45.219Z,98990.34
2018-06-22T22:19:14.058Z,98983.92
2018-06-22T22:21:43.415Z,98992.87
2018-06-22T22:24:12.149Z,98993.40
2018-06-22T22:26:40.925Z,98994.47
2018-06-22T22:29:10.293Z,98988.83
2018-06-22T22:31:38.927Z,98993.46
2018-06-22T22:34:07.947Z,98987.81
2018-06-22T22:36:36.958Z,98986.22
2018-06-22T22:39:07.468Z,98987.28
2018-06-22T22:41:36.479Z,98986.19
2018-06-22T22:44:05.314Z,98991.88
2018-06-22T22:46:33.895Z,98992.41
2018-06-22T22:49:03.223Z,98984.02
2018-06-22T22:51:32.026Z,98987.00
2018-06-22T22:54:00.922Z,98975.16
2018-06-22T22:56:29.740Z,98977.57
2018-06-22T22:58:58.792Z,98989.48
2018-06-22T23:01:27.400Z,98974.89
2018-06-22T23:03:56.363Z,98979.76
2018-06-22T23:06:24.931Z,98976.24
2018-06-22T23:08:53.586Z,98975.17
2018-06-22T23:11:23.152Z,98980.59
2018-06-22T23:13:51.986Z,98974.63
2018-06-22T23:16:20.635Z,98978.95
2018-06-22T23:18:49.207Z,98975.72
2018-06-22T23:21:18.020Z,98973.82
2018-06-22T23:23:46.683Z,98974.91
2018-06-22T23:26:15.529Z,98970.59
2018-06-22T23:28:44.268Z,98969.50
2018-06-22T23:31:13.015Z,98967.87
2018-06-22T23:33:42.273Z,98970.84
2018-06-22T23:36:11.012Z,98962.19
2018-06-22T23:38:39.675Z,98958.92
2018-06-22T23:41:09.378Z,98961.62
2018-06-22T23:43:37.926Z,98959.49
2018-06-22T23:46:06.719Z,98960.78
2018-06-22T23:48:35.534Z,98959.97
2018-06-22T23:51:04.094Z,98953.76
2018-06-22T23:53:33.294Z,98953.77
2018-06-22T23:56:02.025Z,98949.72
2018-06-22T23:58:30.615Z,98943.80
